createdAt,value
2022-10-03T00:00:23.263Z,4.60
2022-10-03T00:03:09.686Z,5.53
2022-10-03T00:06:30.922Z,4.82
2022-10-03T00:09:55.647Z,5.50
2022-10-03T00:13:01.177Z,4.82
2022-10-03T00:15:52.690Z,5.20
2022-10-03T00:18:34.893Z,5.38
2022-10-03T00:21:41.102Z,5.25
2022-10-03T00:24:43.311Z,5.57
2022-10-03T00:27:52.221Z,6.88
2022-10-03T00:30:22.338Z,7.07
2022-10-03T00:33:08.330Z,6.15
2022-10-03T00:36:16.312Z,6.35
2022-10-03T00:39:03.202Z,6.43
2022-10-03T00:41:43.832Z,6.53
2022-10-03T00:44:36.569Z,6.57
2022-10-03T00:47:45.913Z,6.70
2022-10-03T00:50:33.882Z,6.13
2022-10-03T00:53:08.883Z,5.50
2022-10-03T00:56:02.208Z,5.35
2022-10-03T00:58:52.374Z,5.75
2022-10-03T01:01:35.378Z,5.60
2022-10-03T01:07:48.079Z,4.60
2022-10-03T01:10:21.561Z,5.57
2022-10-03T01:13:14.607Z,4.90
2022-10-03T01:16:20.596Z,4.30
2022-10-03T01:18:56.661Z,4.30
2022-10-03T01:21:28.434Z,10.95
2022-10-03T01:24:43.392Z,11.20
2022-10-03T01:27:55.685Z,18.88
2022-10-03T01:30:22.767Z,8.43
2022-10-03T01:33:16.872Z,7.45
2022-10-03T01:36:09.346Z,6.63
2022-10-03T01:38:52.951Z,5.47
2022-10-03T01:41:46.291Z,7.65
2022-10-03T01:44:35.568Z,6.32
2022-10-03T01:47:30.966Z,4.90
2022-10-03T01:50:45.974Z,5.28
2022-10-03T01:53:44.300Z,5.05
2022-10-03T01:56:45.537Z,5.53
2022-10-03T01:59:45.738Z,4.35
2022-10-03T02:02:45.249Z,4.35
2022-10-03T02:09:08.503Z,3.83
2022-10-03T02:11:43.695Z,3.53
2022-10-03T02:14:22.158Z,3.80
2022-10-03T02:16:58.698Z,3.53
2022-10-03T02:19:37.191Z,3.70
2022-10-03T02:22:15.455Z,3.67
2022-10-03T02:45:52.338Z,3.25
2022-10-03T02:51:29.101Z,3.53
2022-10-03T02:54:34.672Z,3.90
2022-10-03T02:57:38.275Z,3.78
2022-10-03T03:00:17.589Z,4.15
2022-10-03T03:02:58.174Z,4.68
2022-10-03T03:05:45.638Z,3.90
2022-10-03T03:08:23.984Z,3.83
2022-10-03T03:11:15.329Z,4.32
2022-10-03T03:14:19.098Z,4.35
2022-10-03T03:17:05.202Z,3.58
2022-10-03T03:19:46.661Z,3.60
2022-10-03T03:22:35.118Z,3.63
2022-10-03T03:25:23.465Z,3.45
2022-10-03T03:28:24.497Z,3.85
2022-10-03T03:31:02.833Z,3.97
2022-10-03T03:33:43.263Z,3.78
2022-10-03T03:36:33.145Z,4.15
2022-10-03T03:39:17.921Z,3.50
2022-10-03T03:42:21.631Z,4.20
2022-10-03T03:45:18.641Z,4.40
2022-10-03T03:48:22.457Z,4.05
2022-10-03T03:51:13.610Z,4.22
2022-10-03T03:54:03.855Z,3.90
2022-10-03T03:56:39.872Z,4.00
2022-10-03T03:59:40.205Z,3.88
2022-10-03T04:02:37.619Z,3.50
2022-10-03T04:05:19.730Z,3.50
2022-10-03T04:12:09.189Z,3.83
2022-10-03T04:14:42.757Z,4.20
2022-10-03T04:18:32.635Z,4.13
2022-10-03T04:21:18.822Z,3.70
2022-10-03T04:24:05.101Z,3.47
2022-10-03T04:27:09.493Z,4.28
2022-10-03T04:30:08.736Z,3.38
2022-10-03T04:32:35.465Z,3.72
2022-10-03T04:35:27.729Z,3.72
2022-10-03T04:38:20.490Z,5.47
2022-10-03T04:41:04.753Z,5.93
2022-10-03T04:43:51.840Z,6.15
2022-10-03T04:46:30.128Z,5.10
2022-10-03T04:49:16.864Z,4.88
2022-10-03T04:52:36.704Z,5.10
2022-10-03T04:55:46.712Z,4.80
2022-10-03T04:59:01.416Z,5.07
2022-10-03T05:02:35.811Z,5.07
2022-10-03T05:06:06.063Z,5.22
2022-10-03T05:09:21.832Z,4.72
2022-10-03T05:11:59.910Z,5.32
2022-10-03T05:14:42.781Z,5.10
2022-10-03T05:17:25.311Z,4.55
2022-10-03T05:20:30.596Z,5.55
2022-10-03T05:23:35.589Z,5.93
2022-10-03T05:26:46.040Z,4.45
2022-10-03T05:29:41.985Z,5.72
2022-10-03T05:32:39.138Z,5.32
2022-10-03T05:35:44.605Z,5.90
2022-10-03T05:38:43.007Z,5.30
2022-10-03T05:41:40.843Z,6.03
2022-10-03T05:44:20.112Z,5.78
2022-10-03T05:47:06.364Z,5.63
2022-10-03T05:50:18.415Z,5.53
2022-10-03T05:53:07.280Z,4.40
2022-10-03T05:56:01.938Z,4.95
2022-10-03T05:58:56.368Z,5.28
2022-10-03T06:02:06.023Z,4.85
2022-10-03T06:05:01.350Z,4.30
2022-10-03T06:08:08.620Z,5.57
2022-10-03T06:10:54.530Z,5.78
2022-10-03T06:13:39.183Z,6.18
2022-10-03T06:16:37.751Z,5.45
2022-10-03T06:19:25.656Z,4.72
2022-10-03T06:22:27.978Z,12.20
2022-10-03T06:25:16.122Z,13.10
2022-10-03T06:28:10.040Z,15.05
2022-10-03T06:31:01.954Z,13.23
2022-10-03T06:34:02.919Z,7.82
2022-10-03T06:39:56.891Z,5.18
2022-10-03T06:42:50.005Z,4.88
2022-10-03T06:45:34.662Z,4.75
2022-10-03T06:48:40.079Z,4.78
2022-10-03T06:51:51.308Z,4.80
2022-10-03T06:54:28.899Z,4.57
2022-10-03T06:57:02.787Z,4.57
2022-10-03T06:59:51.330Z,6.70
2022-10-03T07:02:47.465Z,5.90
2022-10-03T07:05:41.114Z,6.70
2022-10-03T07:08:59.060Z,8.15
2022-10-03T07:11:50.862Z,9.93
2022-10-03T07:14:42.585Z,5.90
2022-10-03T07:17:22.437Z,5.53
2022-10-03T07:20:28.430Z,7.25
2022-10-03T07:23:32.560Z,5.95
2022-10-03T07:26:14.764Z,5.35
2022-10-03T07:29:05.431Z,6.18
2022-10-03T07:31:34.745Z,5.10
2022-10-03T07:34:33.043Z,4.72
2022-10-03T07:37:18.585Z,5.90
2022-10-03T07:40:19.613Z,6.85
2022-10-03T07:43:04.502Z,8.13
2022-10-03T07:45:40.276Z,10.10
2022-10-03T07:48:46.124Z,8.05
2022-10-03T07:51:44.624Z,8.60
2022-10-03T07:54:31.050Z,8.40
2022-10-03T07:57:21.094Z,8.90
2022-10-03T08:00:09.653Z,9.10
2022-10-03T08:03:15.729Z,9.02
2022-10-03T08:06:09.406Z,10.25
2022-10-03T08:09:14.154Z,15.20
2022-10-03T08:11:47.195Z,18.95
2022-10-03T08:14:35.976Z,20.00
2022-10-03T08:17:12.606Z,12.75
2022-10-03T08:20:00.605Z,14.13
2022-10-03T08:23:10.553Z,10.93
2022-10-03T08:25:58.449Z,12.68
2022-10-03T08:29:19.136Z,10.52
2022-10-03T08:32:12.186Z,12.35
2022-10-03T08:34:55.052Z,11.20
2022-10-03T08:40:12.496Z,9.40
2022-10-03T08:43:03.378Z,8.95
2022-10-03T08:45:58.507Z,10.10
2022-10-03T08:49:42.137Z,9.65
2022-10-03T08:53:01.874Z,9.70
2022-10-03T09:03:33.036Z,8.98
2022-10-03T09:07:16.410Z,8.73
2022-10-03T09:21:48.677Z,8.05
2022-10-03T09:24:46.439Z,7.20
2022-10-03T09:28:24.476Z,8.17
2022-10-03T09:31:20.446Z,8.43
2022-10-03T09:33:55.639Z,8.52
2022-10-03T09:36:54.980Z,8.55
2022-10-03T09:39:48.168Z,8.60
2022-10-03T09:42:40.473Z,8.27
2022-10-03T09:45:26.147Z,7.38
2022-10-03T09:47:52.764Z,6.32
2022-10-03T09:50:50.218Z,7.25
2022-10-03T09:53:31.450Z,6.70
2022-10-03T09:56:25.206Z,6.55
2022-10-03T09:59:32.811Z,6.10
2022-10-03T10:02:37.060Z,5.80
2022-10-03T10:05:37.318Z,6.22
2022-10-03T10:08:31.789Z,5.88
2022-10-03T10:11:35.190Z,4.80
2022-10-03T10:14:28.642Z,4.95
2022-10-03T10:17:23.091Z,4.75
2022-10-03T10:20:04.214Z,3.17
2022-10-03T10:23:10.421Z,4.90
2022-10-03T10:26:13.295Z,3.40
2022-10-03T10:28:52.937Z,3.90
2022-10-03T10:31:37.101Z,3.03
2022-10-03T10:34:52.302Z,3.67
2022-10-03T10:37:56.645Z,3.47
2022-10-03T10:40:32.458Z,3.53
2022-10-03T10:43:23.044Z,3.40
2022-10-03T10:46:14.333Z,4.10
2022-10-03T10:49:03.889Z,3.60
2022-10-03T10:52:11.097Z,3.53
2022-10-03T10:54:56.296Z,3.53
2022-10-03T10:57:46.302Z,4.28
2022-10-03T11:00:50.638Z,3.10
2022-10-03T11:03:20.444Z,3.53
2022-10-03T11:06:13.293Z,2.25
2022-10-03T11:09:02.810Z,2.15
2022-10-03T11:11:47.921Z,2.58
2022-10-03T11:14:45.348Z,2.88
2022-10-03T11:17:48.352Z,3.30
2022-10-03T11:23:23.330Z,3.47
2022-10-03T11:26:17.596Z,3.53
2022-10-03T11:29:06.413Z,3.20
2022-10-03T11:31:52.035Z,3.20
2022-10-03T11:34:21.733Z,3.00
2022-10-03T11:39:58.321Z,3.35
2022-10-03T11:42:52.877Z,3.17
2022-10-03T11:45:41.997Z,2.28
2022-10-03T11:48:34.067Z,1.70
2022-10-03T11:51:08.464Z,1.60
2022-10-03T11:54:30.577Z,1.95
2022-10-03T12:00:02.698Z,1.67
2022-10-03T12:03:12.920Z,1.27
2022-10-03T12:05:49.615Z,1.30
2022-10-03T12:08:55.972Z,1.60
2022-10-03T12:11:27.433Z,1.42
2022-10-03T12:14:11.445Z,1.70
2022-10-03T12:17:23.307Z,1.63
2022-10-03T12:20:22.538Z,1.35
2022-10-03T12:23:09.538Z,1.73
2022-10-03T12:25:43.135Z,1.50
2022-10-03T12:28:43.645Z,1.60
2022-10-03T12:31:35.408Z,1.33
2022-10-03T12:34:27.853Z,1.45
2022-10-03T12:37:39.249Z,1.73
2022-10-03T12:40:53.663Z,1.50
2022-10-03T12:43:40.992Z,1.52
2022-10-03T12:46:38.311Z,1.70
2022-10-03T12:49:20.033Z,1.42
2022-10-03T12:51:59.756Z,1.40
2022-10-03T12:54:41.639Z,1.27
2022-10-03T12:57:35.940Z,1.33
2022-10-03T13:00:26.901Z,1.25
2022-10-03T13:03:09.467Z,1.30
2022-10-03T13:08:45.516Z,1.45
2022-10-03T13:11:27.705Z,1.60
2022-10-03T13:14:29.987Z,2.38
2022-10-03T13:17:12.551Z,3.78
2022-10-03T13:22:41.015Z,2.78
2022-10-03T13:25:41.064Z,1.42
2022-10-03T13:28:47.950Z,2.05
2022-10-03T13:31:23.714Z,1.63
2022-10-03T13:33:54.694Z,1.80
2022-10-03T13:36:46.856Z,3.97
2022-10-03T13:39:25.075Z,2.15
2022-10-03T13:42:21.567Z,2.20
2022-10-03T13:44:54.797Z,1.55
2022-10-03T13:47:41.908Z,1.50
2022-10-03T13:50:28.294Z,1.55
2022-10-03T13:53:14.618Z,1.77
2022-10-03T13:56:05.274Z,1.70
2022-10-03T13:58:49.906Z,1.67
2022-10-03T14:01:26.357Z,1.55
2022-10-03T14:04:04.837Z,1.77
2022-10-03T14:06:50.678Z,1.20
2022-10-03T14:09:26.169Z,1.40
2022-10-03T14:12:04.965Z,1.30
2022-10-03T14:15:10.459Z,1.23
2022-10-03T14:18:16.605Z,1.00
2022-10-03T14:21:12.374Z,1.67
2022-10-03T14:36:21.212Z,1.48
2022-10-03T14:39:04.813Z,1.30
2022-10-03T14:41:46.257Z,1.10
2022-10-03T14:44:25.028Z,0.90
2022-10-03T14:47:00.159Z,1.40
2022-10-03T14:49:59.497Z,1.40
2022-10-03T14:52:46.829Z,1.10
2022-10-03T14:55:29.211Z,1.20
2022-10-03T14:58:18.672Z,1.20
2022-10-03T15:01:10.027Z,1.73
2022-10-03T15:03:41.937Z,1.23
2022-10-03T15:06:21.794Z,1.42
2022-10-03T15:08:54.182Z,1.30
2022-10-03T15:11:34.832Z,1.20
2022-10-03T15:14:06.693Z,1.20
2022-10-03T15:16:47.687Z,1.40
2022-10-03T15:19:19.413Z,0.95
2022-10-03T15:21:52.311Z,1.48
2022-10-03T15:24:29.508Z,1.10
2022-10-03T15:27:07.121Z,1.10
2022-10-03T15:29:38.379Z,1.40
2022-10-03T15:32:17.110Z,1.25
2022-10-03T15:34:50.723Z,1.42
2022-10-03T15:37:22.382Z,1.43
2022-10-03T15:39:56.364Z,1.55
2022-10-03T15:42:29.477Z,1.20
2022-10-03T15:45:18.398Z,1.15
2022-10-03T15:47:49.331Z,1.45
2022-10-03T15:50:23.754Z,1.20
2022-10-03T15:53:24.563Z,1.73
2022-10-03T15:56:11.993Z,1.20
2022-10-03T15:59:06.403Z,2.38
2022-10-03T16:04:37.555Z,1.30
2022-10-03T16:07:12.374Z,1.35
2022-10-03T16:10:19.784Z,2.13
2022-10-03T16:13:24.586Z,1.52
2022-10-03T16:16:18.634Z,1.42
2022-10-03T16:18:53.253Z,1.55
2022-10-03T16:21:42.914Z,1.30
2022-10-03T16:24:22.732Z,1.13
2022-10-03T16:27:13.724Z,1.42
2022-10-03T16:29:49.194Z,1.58
2022-10-03T16:32:25.145Z,1.33
2022-10-03T16:34:52.827Z,1.63
2022-10-03T16:37:24.527Z,1.75
2022-10-03T16:39:58.490Z,1.75
2022-10-03T16:42:39.004Z,1.30
2022-10-03T16:45:28.958Z,1.40
2022-10-03T16:48:20.773Z,1.40
2022-10-03T16:50:52.682Z,1.85
2022-10-03T16:53:21.618Z,1.55
2022-10-03T16:55:53.657Z,1.90
2022-10-03T16:58:32.606Z,2.00
2022-10-03T17:09:49.491Z,2.35
2022-10-03T17:18:09.092Z,2.60
2022-10-03T17:20:47.423Z,2.08
2022-10-03T17:24:04.875Z,2.40
2022-10-03T17:26:43.995Z,2.42
2022-10-03T17:29:23.362Z,3.42
2022-10-03T17:31:59.539Z,3.10
2022-10-03T17:34:30.804Z,2.28
2022-10-03T17:39:58.626Z,1.85
2022-10-03T17:45:42.600Z,1.88
2022-10-03T17:48:26.049Z,2.20
2022-10-03T17:51:29.029Z,2.58
2022-10-03T17:54:03.707Z,4.15
2022-10-03T17:56:34.033Z,5.40
2022-10-03T17:59:17.779Z,5.20
2022-10-03T18:01:53.418Z,3.60
2022-10-03T18:04:48.658Z,4.10
2022-10-03T18:07:22.798Z,5.55
2022-10-03T18:09:55.004Z,5.78
2022-10-03T18:12:32.444Z,4.63
2022-10-03T18:15:28.110Z,7.88
2022-10-03T18:18:13.184Z,8.55
2022-10-03T18:21:22.069Z,10.63
2022-10-03T18:23:55.777Z,25.80
2022-10-03T18:26:28.720Z,24.35
2022-10-03T18:31:35.413Z,14.15
2022-10-03T18:34:21.542Z,13.85
2022-10-03T18:36:52.535Z,12.23
2022-10-03T18:39:23.136Z,9.57
2022-10-03T18:41:57.571Z,6.10
2022-10-03T18:47:13.333Z,4.30
2022-10-03T18:50:16.720Z,4.40
2022-10-03T18:52:53.578Z,3.58
2022-10-03T18:55:43.206Z,3.72
2022-10-03T18:58:26.351Z,3.55
2022-10-03T19:01:18.607Z,5.85
2022-10-03T19:04:01.463Z,4.93
2022-10-03T19:06:33.842Z,3.90
2022-10-03T19:09:18.764Z,5.22
2022-10-03T19:12:13.072Z,6.50
2022-10-03T19:15:10.803Z,8.55
2022-10-03T19:17:56.391Z,4.90
2022-10-03T19:20:40.490Z,4.25
2022-10-03T19:23:42.776Z,2.90
2022-10-03T19:26:22.558Z,3.30
2022-10-03T19:29:12.106Z,8.63
2022-10-03T19:31:46.484Z,7.47
2022-10-03T19:34:39.830Z,9.05
2022-10-03T19:37:30.406Z,10.13
2022-10-03T19:39:59.133Z,17.33
2022-10-03T19:42:51.266Z,8.40
2022-10-03T19:45:20.589Z,6.65
2022-10-03T19:47:57.556Z,6.00
2022-10-03T19:50:36.126Z,5.13
2022-10-03T19:53:15.473Z,4.05
2022-10-03T19:55:53.117Z,4.32
2022-10-03T19:58:24.296Z,5.22
2022-10-03T20:00:59.593Z,4.28
2022-10-03T20:03:51.277Z,3.88
2022-10-03T20:06:38.912Z,4.10
2022-10-03T20:09:21.234Z,5.13
2022-10-03T20:12:01.005Z,4.35
2022-10-03T20:14:34.237Z,3.42
2022-10-03T20:17:19.887Z,2.63
2022-10-03T20:20:16.014Z,2.58
2022-10-03T20:22:43.141Z,2.70
2022-10-03T20:25:35.479Z,3.42
2022-10-03T20:28:07.220Z,3.65
2022-10-03T20:30:45.141Z,3.72
2022-10-03T20:33:21.248Z,3.70
2022-10-03T20:35:54.423Z,2.90
2022-10-03T20:38:42.156Z,5.03
2022-10-03T20:41:19.042Z,4.45
2022-10-03T20:44:07.626Z,4.32
2022-10-03T20:46:48.387Z,3.78
2022-10-03T20:49:26.760Z,4.25
2022-10-03T20:52:00.349Z,4.07
2022-10-03T20:54:34.785Z,3.10
2022-10-03T21:08:41.152Z,2.85
2022-10-03T21:11:10.693Z,2.38
2022-10-03T21:13:43.256Z,2.58
2022-10-03T21:16:27.669Z,2.92
2022-10-03T21:19:06.277Z,2.88
2022-10-03T21:21:43.341Z,3.78
2022-10-03T21:24:29.755Z,3.08
2022-10-03T21:27:09.295Z,3.25
2022-10-03T21:29:43.269Z,3.03
2022-10-03T21:32:19.231Z,2.55
2022-10-03T21:35:13.821Z,2.42
2022-10-03T21:37:57.279Z,2.33
2022-10-03T21:40:42.196Z,2.80
2022-10-03T21:43:11.912Z,2.83
2022-10-03T21:46:06.560Z,2.55
2022-10-03T21:48:49.915Z,2.00
2022-10-03T21:51:16.580Z,2.03
2022-10-03T21:53:56.291Z,2.70
2022-10-03T21:56:35.522Z,2.78
2022-10-03T21:59:24.276Z,2.40
2022-10-03T22:02:33.786Z,2.55
2022-10-03T22:05:19.746Z,1.95
2022-10-03T22:07:48.406Z,3.25
2022-10-03T22:10:24.357Z,2.40
2022-10-03T22:13:10.422Z,2.95
2022-10-03T22:15:52.556Z,2.22
2022-10-03T22:18:21.424Z,2.22
2022-10-03T22:20:48.978Z,2.65
2022-10-03T22:23:57.134Z,2.92
2022-10-03T22:26:49.378Z,3.30
2022-10-03T22:30:03.218Z,2.70
2022-10-03T22:33:07.173Z,2.78
2022-10-03T22:35:44.388Z,3.40
2022-10-03T22:41:14.303Z,3.13
2022-10-03T22:43:43.383Z,2.53
2022-10-03T22:46:17.341Z,3.20
2022-10-03T22:48:50.614Z,2.72
2022-10-03T22:51:21.675Z,3.10
2022-10-03T22:54:00.434Z,2.60
2022-10-03T22:56:35.190Z,2.50
2022-10-03T22:59:11.419Z,2.40
2022-10-03T23:01:44.949Z,2.88
2022-10-03T23:04:35.840Z,3.42
2022-10-03T23:07:22.331Z,3.70
2022-10-03T23:16:04.865Z,3.10
2022-10-03T23:19:13.496Z,3.45
2022-10-03T23:21:46.553Z,2.60
2022-10-03T23:24:26.154Z,2.95
2022-10-03T23:27:02.771Z,3.10
2022-10-03T23:29:29.435Z,3.00
2022-10-03T23:32:02.449Z,3.30
2022-10-03T23:34:35.345Z,2.80
2022-10-03T23:37:12.832Z,3.72
2022-10-03T23:39:41.127Z,5.45
2022-10-03T23:42:41.070Z,5.32
2022-10-03T23:45:10.901Z,5.18
2022-10-03T23:47:59.083Z,3.63
2022-10-03T23:50:55.022Z,3.22
2022-10-03T23:53:41.090Z,2.72
2022-10-03T23:56:31.431Z,2.83
2022-10-03T23:59:16.251Z,3.28
